createdAt,value
2019-05-21T00:00:10.526Z,103.97
2019-05-21T00:04:31.370Z,100.00
2019-05-21T00:08:51.917Z,91.60
2019-05-21T00:13:12.698Z,108.70
2019-05-21T00:17:33.220Z,96.05
2019-05-21T00:21:53.697Z,74.50
2019-05-21T00:26:14.878Z,55.12
2019-05-21T00:31:12.064Z,55.50
2019-05-21T00:36:09.702Z,46.73
2019-05-21T00:41:06.771Z,63.15
2019-05-21T00:45:26.988Z,44.18
2019-05-21T00:49:47.185Z,40.20
2019-05-21T00:54:08.131Z,41.33
2019-05-21T00:58:28.444Z,45.80
2019-05-21T01:02:48.759Z,49.03
2019-05-21T01:07:08.958Z,46.53
2019-05-21T01:11:30.153Z,43.73
2019-05-21T01:15:50.949Z,37.75
2019-05-21T01:20:11.795Z,48.87
2019-05-21T01:24:32.474Z,45.85
2019-05-21T01:28:53.155Z,45.40
2019-05-21T01:33:13.735Z,27.70
2019-05-21T01:37:34.543Z,39.10
2019-05-21T01:41:54.920Z,45.28
2019-05-21T01:46:15.340Z,44.70
2019-05-21T01:50:36.800Z,71.90
2019-05-21T01:54:57.798Z,46.55
2019-05-21T01:59:18.295Z,40.88
2019-05-21T02:03:38.588Z,35.40
2019-05-21T02:07:59.383Z,39.13
2019-05-21T02:12:19.648Z,124.42
2019-05-21T02:16:40.147Z,51.80
2019-05-21T02:21:01.160Z,41.90
2019-05-21T02:25:21.488Z,92.25
2019-05-21T02:29:41.935Z,45.10
2019-05-21T02:34:02.585Z,43.48
2019-05-21T02:38:23.248Z,59.70
2019-05-21T02:42:43.842Z,94.80
2019-05-21T02:47:04.398Z,41.88
2019-05-21T02:51:25.519Z,44.42
2019-05-21T02:55:45.574Z,38.20
2019-05-21T03:00:08.428Z,43.23
2019-05-21T03:04:29.476Z,47.25
2019-05-21T03:08:49.657Z,54.93
2019-05-21T03:13:10.975Z,49.83
2019-05-21T03:17:31.561Z,51.25
2019-05-21T03:21:52.909Z,46.35
2019-05-21T03:26:13.760Z,32.80
2019-05-21T03:30:34.403Z,30.95
2019-05-21T03:34:55.449Z,43.63
2019-05-21T03:39:19.268Z,32.53
2019-05-21T03:43:38.757Z,45.70
2019-05-21T03:47:59.370Z,58.73
2019-05-21T03:52:19.922Z,46.63
2019-05-21T03:56:40.280Z,50.70
2019-05-21T04:01:00.493Z,148.93
2019-05-21T04:05:24.412Z,82.60
2019-05-21T04:09:45.095Z,53.15
2019-05-21T04:14:05.202Z,61.55
2019-05-21T04:18:25.854Z,68.57
2019-05-21T04:22:46.583Z,64.07
2019-05-21T04:27:07.975Z,57.53
2019-05-21T04:31:28.744Z,63.60
2019-05-21T04:35:48.911Z,74.55
2019-05-21T04:40:09.398Z,74.95
2019-05-21T04:44:30.071Z,179.07
2019-05-21T04:48:50.884Z,83.17
2019-05-21T04:53:11.099Z,151.50
2019-05-21T04:57:31.610Z,415.40
2019-05-21T05:01:52.435Z,200.93
2019-05-21T05:06:12.893Z,309.05
2019-05-21T05:10:33.503Z,219.55
2019-05-21T05:14:54.044Z,384.23
2019-05-21T05:19:14.112Z,226.12
2019-05-21T05:23:34.218Z,387.68
2019-05-21T05:27:55.062Z,395.20
2019-05-21T05:32:15.321Z,456.15
2019-05-21T05:36:37.021Z,322.75
2019-05-21T05:40:57.886Z,258.80
2019-05-21T05:45:18.487Z,178.68
2019-05-21T05:49:39.285Z,218.35
2019-05-21T05:53:59.743Z,355.65
2019-05-21T05:58:20.655Z,196.07
2019-05-21T06:02:41.453Z,367.18
2019-05-21T06:07:02.309Z,390.87
2019-05-21T06:11:22.546Z,414.45
2019-05-21T06:15:43.070Z,347.10
2019-05-21T06:20:05.552Z,519.08
2019-05-21T06:24:26.482Z,470.45
2019-05-21T06:28:47.148Z,260.15
2019-05-21T06:33:08.485Z,374.15
2019-05-21T06:37:29.322Z,216.97
2019-05-21T06:41:49.662Z,198.07
2019-05-21T06:46:10.360Z,177.00
2019-05-21T06:50:30.958Z,146.22
2019-05-21T06:54:51.834Z,166.35
2019-05-21T06:59:12.484Z,160.72
2019-05-21T07:03:33.184Z,184.72
2019-05-21T07:07:56.991Z,180.30
2019-05-21T07:12:18.122Z,238.07
2019-05-21T07:16:38.445Z,266.45
2019-05-21T07:20:59.749Z,146.02
2019-05-21T07:25:25.283Z,129.00
2019-05-21T07:29:46.879Z,181.65
2019-05-21T07:34:07.420Z,108.57
2019-05-21T07:38:27.887Z,131.97
2019-05-21T07:42:48.935Z,98.05
2019-05-21T07:47:13.158Z,135.95
2019-05-21T07:51:33.881Z,154.75
2019-05-21T07:55:54.255Z,158.45
2019-05-21T08:00:17.189Z,157.75
2019-05-21T08:04:37.670Z,143.60
2019-05-21T08:09:12.334Z,118.62
2019-05-21T08:13:21.777Z,181.93
2019-05-21T08:17:42.635Z,200.47
2019-05-21T08:22:03.302Z,181.47
2019-05-21T08:26:23.831Z,231.17
2019-05-21T08:30:49.512Z,201.60
2019-05-21T08:35:10.408Z,218.15
2019-05-21T08:39:31.831Z,121.15
2019-05-21T08:48:30.824Z,92.05
2019-05-21T08:52:51.368Z,78.33
2019-05-21T08:57:22.001Z,52.10
2019-05-21T09:01:42.516Z,46.92
2019-05-21T09:06:24.369Z,52.50
2019-05-21T09:10:40.576Z,50.70
2019-05-21T09:15:01.421Z,49.60
2019-05-21T09:19:22.602Z,46.30
2019-05-21T09:23:43.545Z,46.53
2019-05-21T09:28:03.945Z,63.05
2019-05-21T09:32:27.328Z,55.58
2019-05-21T09:36:48.077Z,38.95
2019-05-21T09:41:08.547Z,33.45
2019-05-21T09:45:29.245Z,30.15
2019-05-21T09:49:50.928Z,35.95
2019-05-21T09:54:11.842Z,38.28
2019-05-21T09:58:32.516Z,35.10
2019-05-21T10:02:59.089Z,33.48
2019-05-21T10:07:37.639Z,26.02
2019-05-21T10:11:42.528Z,33.25
2019-05-21T10:16:05.780Z,28.30
2019-05-21T10:20:27.261Z,29.35
2019-05-21T10:24:48.453Z,30.32
2019-05-21T10:29:08.663Z,25.97
2019-05-21T10:33:30.246Z,30.43
2019-05-21T10:37:55.134Z,22.25
2019-05-21T10:42:13.841Z,32.58
2019-05-21T10:46:36.030Z,33.85
2019-05-21T10:50:56.552Z,28.35
2019-05-21T10:55:17.764Z,45.50
2019-05-21T10:59:38.534Z,33.63
2019-05-21T11:03:58.886Z,36.90
2019-05-21T11:08:24.375Z,42.35
2019-05-21T11:12:42.446Z,45.05
2019-05-21T11:17:02.776Z,49.58
2019-05-21T11:21:26.248Z,43.17
2019-05-21T11:25:55.815Z,53.35
2019-05-21T11:30:17.558Z,53.45
2019-05-21T11:34:38.297Z,57.78
2019-05-21T11:39:00.410Z,72.95
2019-05-21T11:43:22.149Z,97.40
2019-05-21T11:47:42.639Z,79.25
2019-05-21T11:52:06.070Z,91.47
2019-05-21T11:56:28.045Z,87.08
2019-05-21T12:00:49.489Z,77.00
2019-05-21T12:05:09.937Z,79.85
2019-05-21T12:09:31.343Z,85.35
2019-05-21T12:13:51.591Z,100.58
2019-05-21T12:18:12.378Z,70.45
2019-05-21T12:22:33.218Z,108.57
2019-05-21T12:26:53.541Z,99.52
2019-05-21T12:31:14.429Z,115.95
2019-05-21T12:35:35.251Z,125.02
2019-05-21T12:39:55.797Z,89.87
2019-05-21T12:44:16.186Z,148.10
2019-05-21T12:48:37.278Z,102.75
2019-05-21T12:52:57.631Z,78.97
2019-05-21T12:57:18.657Z,79.40
2019-05-21T13:01:38.972Z,81.15
2019-05-21T13:06:00.142Z,82.92
2019-05-21T13:10:20.372Z,87.57
2019-05-21T13:14:40.732Z,76.62
2019-05-21T13:19:01.501Z,73.75
2019-05-21T13:23:25.041Z,69.53
2019-05-21T13:27:57.450Z,64.65
2019-05-21T13:32:16.280Z,67.85
2019-05-21T13:36:36.379Z,110.57
2019-05-21T13:40:57.172Z,79.12
2019-05-21T13:45:18.728Z,61.18
2019-05-21T13:49:43.685Z,75.32
2019-05-21T13:54:04.703Z,150.40
2019-05-21T13:58:25.322Z,73.65
2019-05-21T14:02:47.022Z,92.12
2019-05-21T14:07:07.246Z,65.80
2019-05-21T14:11:31.435Z,68.45
2019-05-21T14:15:52.635Z,75.15
2019-05-21T14:20:14.467Z,69.30
2019-05-21T14:24:35.095Z,81.60
2019-05-21T14:28:56.274Z,80.38
2019-05-21T14:33:17.064Z,96.40
2019-05-21T14:37:39.202Z,88.95
2019-05-21T14:42:00.697Z,96.85
2019-05-21T14:46:28.511Z,91.75
2019-05-21T14:50:50.729Z,103.45
2019-05-21T14:55:11.958Z,84.03
2019-05-21T14:59:32.796Z,104.80
2019-05-21T15:03:53.713Z,87.08
2019-05-21T15:08:14.685Z,70.97
2019-05-21T15:12:35.584Z,64.67
2019-05-21T15:16:56.238Z,78.42
2019-05-21T15:21:21.246Z,70.97
2019-05-21T15:25:49.015Z,72.90
2019-05-21T15:30:19.254Z,63.33
2019-05-21T15:34:39.491Z,56.15
2019-05-21T15:39:00.059Z,59.80
2019-05-21T15:43:21.898Z,64.40
2019-05-21T15:47:42.667Z,68.57
2019-05-21T15:52:03.964Z,64.17
2019-05-21T15:56:24.208Z,67.65
2019-05-21T16:00:45.535Z,59.65
2019-05-21T16:05:07.152Z,70.47
2019-05-21T16:09:31.397Z,52.55
2019-05-21T16:13:52.561Z,58.85
2019-05-21T16:18:13.722Z,55.70
2019-05-21T16:22:37.189Z,52.23
2019-05-21T16:26:57.973Z,59.05
2019-05-21T16:31:18.767Z,64.90
2019-05-21T16:35:39.368Z,59.80
2019-05-21T16:40:01.474Z,50.92
2019-05-21T16:44:22.544Z,52.35
2019-05-21T16:48:43.465Z,45.48
2019-05-21T16:53:04.949Z,52.05
2019-05-21T16:57:25.345Z,48.75
2019-05-21T17:01:46.025Z,38.23
2019-05-21T17:06:07.011Z,49.45
2019-05-21T17:10:39.223Z,44.70
2019-05-21T17:14:59.558Z,56.02
2019-05-21T17:19:20.547Z,45.70
2019-05-21T17:23:41.154Z,39.03
2019-05-21T17:28:02.841Z,48.42
2019-05-21T17:32:24.055Z,46.75
2019-05-21T17:36:44.256Z,47.70
2019-05-21T17:41:08.153Z,42.17
2019-05-21T17:45:28.833Z,46.92
2019-05-21T17:49:54.651Z,40.55
2019-05-21T17:54:16.363Z,42.93
2019-05-21T17:58:43.220Z,36.28
2019-05-21T18:03:03.434Z,44.55
2019-05-21T18:07:24.151Z,48.83
2019-05-21T18:11:44.725Z,43.87
2019-05-21T18:16:05.528Z,44.08
2019-05-21T18:20:25.891Z,45.03
2019-05-21T18:24:48.863Z,45.38
2019-05-21T18:29:13.297Z,46.40
2019-05-21T18:33:36.628Z,51.88
2019-05-21T18:38:00.471Z,54.55
2019-05-21T18:42:22.865Z,48.13
2019-05-21T18:46:44.311Z,49.33
2019-05-21T18:51:05.128Z,54.93
2019-05-21T18:55:25.604Z,51.13
2019-05-21T18:59:46.715Z,50.35
2019-05-21T19:04:07.804Z,61.55
2019-05-21T19:08:28.392Z,59.10
2019-05-21T19:12:48.626Z,63.55
2019-05-21T19:17:09.571Z,72.53
2019-05-21T19:21:30.055Z,69.97
2019-05-21T19:25:50.873Z,64.30
2019-05-21T19:30:12.021Z,65.78
2019-05-21T19:34:32.641Z,52.08
2019-05-21T19:38:53.670Z,70.75
2019-05-21T19:43:14.499Z,56.88
2019-05-21T19:47:35.639Z,71.50
2019-05-21T19:51:56.411Z,70.87
2019-05-21T19:56:17.598Z,66.45
2019-05-21T20:00:38.379Z,72.03
2019-05-21T20:05:00.374Z,70.17
2019-05-21T20:09:22.339Z,39.03
2019-05-21T20:13:43.752Z,56.28
2019-05-21T20:18:07.667Z,42.58
2019-05-21T20:22:28.562Z,37.38
2019-05-21T20:26:49.615Z,39.70
2019-05-21T20:31:10.365Z,44.05
2019-05-21T20:35:33.446Z,44.95
2019-05-21T20:39:55.538Z,44.55
2019-05-21T20:44:16.218Z,37.55
2019-05-21T20:48:37.623Z,43.13
2019-05-21T20:52:59.557Z,39.30
2019-05-21T20:57:20.304Z,46.75
2019-05-21T21:01:40.808Z,38.88
2019-05-21T21:06:01.488Z,55.60
2019-05-21T21:10:22.438Z,54.50
2019-05-21T21:14:43.948Z,51.70
2019-05-21T21:19:04.924Z,65.37
2019-05-21T21:23:25.945Z,44.83
2019-05-21T21:27:46.652Z,68.45
2019-05-21T21:32:07.542Z,57.90
2019-05-21T21:36:28.105Z,47.25
2019-05-21T21:40:49.054Z,59.75
2019-05-21T21:45:10.694Z,56.05
2019-05-21T21:49:32.583Z,55.12
2019-05-21T21:53:52.883Z,68.92
2019-05-21T21:58:13.375Z,64.50
2019-05-21T22:02:35.501Z,87.88
2019-05-21T22:06:56.783Z,114.22
2019-05-21T22:11:18.688Z,86.67
2019-05-21T22:15:39.190Z,80.65
2019-05-21T22:20:00.275Z,67.40
2019-05-21T22:24:21.799Z,61.23
2019-05-21T22:28:42.335Z,64.17
2019-05-21T22:33:02.808Z,62.70
2019-05-21T22:37:24.634Z,64.27
2019-05-21T22:41:45.322Z,56.30
2019-05-21T22:46:06.153Z,67.20
2019-05-21T22:50:26.982Z,64.00
2019-05-21T22:54:47.922Z,75.87
2019-05-21T22:59:09.151Z,59.98
2019-05-21T23:03:30.178Z,75.85
2019-05-21T23:07:51.155Z,72.37
2019-05-21T23:12:11.517Z,75.47
2019-05-21T23:16:31.943Z,85.07
2019-05-21T23:20:55.003Z,88.47
2019-05-21T23:25:15.914Z,71.95
2019-05-21T23:29:36.339Z,71.67
2019-05-21T23:33:56.526Z,77.97
2019-05-21T23:38:18.303Z,76.00
2019-05-21T23:42:38.621Z,70.65
2019-05-21T23:46:58.968Z,87.50
2019-05-21T23:51:20.441Z,76.90
2019-05-21T23:55:40.670Z,149.97
